Time;durP1;ratioP1;P1;durP2;ratioP2;P2;SDS_P1;SDS_P2;PMS_P1;PMS_P2;Temp;Humidity;BMP_temperature;BMP_pressure;BME280_temperature;BME280_humidity;BME280_pressure;Samples;Min_cycle;Max_cycle;Signal;HPM_P1;HPM_P2
2023/08/20 00:02:07;;;;;;;10.38;7.32;;;;;;;25.51;54.76;99952.75;5117829;28;20039;-69
2023/08/20 00:04:35;;;;;;;10.85;7.50;;;;;;;25.49;54.96;99954.91;5117947;28;20221;-69
2023/08/20 00:07:01;;;;;;;9.27;7.60;;;;;;;25.43;55.03;99949.44;5117425;28;20039;-69
2023/08/20 00:09:27;;;;;;;8.35;6.95;;;;;;;25.31;55.39;99958.78;5117708;28;20123;-68
2023/08/20 00:11:52;;;;;;;9.30;7.13;;;;;;;25.10;55.88;99950.41;5117520;28;20028;-69
2023/08/20 00:14:18;;;;;;;9.18;6.95;;;;;;;25.03;56.45;99946.25;5117693;28;20042;-68
2023/08/20 00:16:46;;;;;;;8.10;6.60;;;;;;;24.90;56.36;99924.88;5117513;28;20104;-69
2023/08/20 00:19:11;;;;;;;9.27;7.50;;;;;;;25.07;55.97;99939.25;5118057;28;20042;-70
2023/08/20 00:21:42;;;;;;;9.30;7.53;;;;;;;25.03;56.15;99936.22;5117802;28;20090;-69
2023/08/20 00:24:08;;;;;;;8.82;7.00;;;;;;;25.04;55.91;99937.03;5117980;28;20059;-68
2023/08/20 00:26:34;;;;;;;8.25;6.97;;;;;;;25.04;55.77;99937.88;5121538;28;20046;-68
2023/08/20 00:28:59;;;;;;;8.65;7.05;;;;;;;24.97;55.98;99930.94;5121816;28;20036;-69
2023/08/20 00:31:25;;;;;;;9.63;6.90;;;;;;;24.92;56.45;99925.44;5121492;28;20031;-68
2023/08/20 00:33:50;;;;;;;7.18;6.10;;;;;;;24.86;56.84;99938.09;5121697;28;20038;-69
2023/08/20 00:36:16;;;;;;;9.52;7.15;;;;;;;24.76;57.26;99929.84;5121308;28;20036;-69
2023/08/20 00:38:41;;;;;;;10.60;6.95;;;;;;;24.72;57.87;99934.13;5121429;28;20032;-68
2023/08/20 00:41:06;;;;;;;7.50;6.70;;;;;;;24.65;58.18;99922.66;5121666;28;20041;-69
2023/08/20 00:43:32;;;;;;;9.15;7.18;;;;;;;24.55;58.57;99919.81;5121602;28;20049;-69
2023/08/20 00:45:59;;;;;;;8.00;6.72;;;;;;;24.40;59.07;99912.28;5121508;28;20078;-69
2023/08/20 00:48:25;;;;;;;9.23;7.38;;;;;;;24.44;58.83;99914.25;5121367;28;20047;-68
2023/08/20 00:50:51;;;;;;;10.27;7.13;;;;;;;24.60;58.54;99917.16;5121216;28;20347;-69
2023/08/20 00:53:17;;;;;;;8.00;6.30;;;;;;;24.68;57.97;99914.03;5121256;28;20039;-69
2023/08/20 00:55:43;;;;;;;8.32;7.20;;;;;;;24.69;57.97;99908.38;5120994;28;20268;-69
2023/08/20 00:58:10;;;;;;;9.20;7.47;;;;;;;24.64;58.15;99904.78;5120985;28;20059;-69
2023/08/20 01:00:35;;;;;;;8.45;7.43;;;;;;;24.68;58.25;99909.44;5121138;28;20313;-69
2023/08/20 01:03:00;;;;;;;8.55;7.65;;;;;;;24.75;57.99;99906.53;5121310;28;20080;-69
2023/08/20 01:05:33;;;;;;;9.10;7.57;;;;;;;24.76;57.97;99902.78;5121137;28;20114;-69
2023/08/20 01:08:09;;;;;;;9.43;7.38;;;;;;;24.76;57.86;99906.28;5120725;28;20069;-70
2023/08/20 01:10:56;;;;;;;9.95;7.40;;;;;;;24.75;58.34;99901.13;5121001;28;20048;-69
2023/08/20 01:13:21;;;;;;;9.60;6.75;;;;;;;24.79;57.97;99902.25;5120784;28;20038;-68
2023/08/20 01:15:47;;;;;;;9.25;6.75;;;;;;;24.81;57.80;99902.84;5120474;28;20039;-69
2023/08/20 01:18:12;;;;;;;7.22;6.53;;;;;;;24.78;57.78;99906.03;5120836;28;20217;-68
2023/08/20 01:20:58;;;;;;;7.38;6.68;;;;;;;24.70;58.41;99903.78;5120446;28;20039;-69
2023/08/20 01:23:29;;;;;;;8.43;7.53;;;;;;;24.49;59.58;99908.09;5120529;28;20043;-69
2023/08/20 01:26:28;;;;;;;8.65;7.75;;;;;;;24.28;60.70;99914.28;5120543;28;20108;-69
2023/08/20 01:28:55;;;;;;;8.95;7.85;;;;;;;24.11;60.90;99909.66;5120229;28;20041;-69
2023/08/20 01:31:20;;;;;;;8.73;7.30;;;;;;;24.05;61.17;99899.81;5120469;28;20098;-69
2023/08/20 01:33:46;;;;;;;8.20;7.05;;;;;;;24.09;60.89;99900.16;5120549;28;20385;-68
2023/08/20 01:36:11;;;;;;;8.77;7.47;;;;;;;24.14;60.75;99905.66;5119261;28;20089;-69
2023/08/20 01:38:37;;;;;;;10.10;8.05;;;;;;;24.20;60.50;99904.66;5120038;28;20046;-68
2023/08/20 01:41:03;;;;;;;10.82;8.30;;;;;;;24.00;60.74;99890.81;5119901;28;20042;-69
2023/08/20 01:43:29;;;;;;;8.38;7.57;;;;;;;24.09;60.61;99897.44;5120187;28;20035;-68
2023/08/20 01:45:54;;;;;;;10.02;7.82;;;;;;;23.94;61.10;99897.19;5119841;28;20092;-69
2023/08/20 01:48:20;;;;;;;8.50;7.60;;;;;;;24.10;60.47;99901.78;5120027;28;20035;-68
2023/08/20 01:50:45;;;;;;;10.43;8.65;;;;;;;24.24;59.91;99900.38;5119931;28;20092;-69
2023/08/20 01:53:11;;;;;;;10.32;8.27;;;;;;;24.30;59.58;99896.72;5119700;28;20378;-69
2023/08/20 01:55:37;;;;;;;8.15;7.40;;;;;;;24.35;59.79;99895.97;5119849;28;20031;-68
2023/08/20 01:58:02;;;;;;;8.68;7.53;;;;;;;24.37;59.15;99897.38;5120110;28;20028;-69
2023/08/20 02:00:28;;;;;;;9.00;8.00;;;;;;;24.33;59.13;99890.81;5119771;28;20233;-68
2023/08/20 02:02:54;;;;;;;9.20;8.38;;;;;;;24.36;59.36;99886.78;5120044;28;20034;-69
2023/08/20 02:05:19;;;;;;;9.70;7.72;;;;;;;24.32;59.78;99893.78;5119776;28;20043;-69
2023/08/20 02:07:45;;;;;;;10.05;8.32;;;;;;;24.37;59.57;99891.94;5119461;28;20039;-69
2023/08/20 02:10:10;;;;;;;9.23;8.32;;;;;;;24.40;59.49;99891.47;5119700;28;20237;-69
2023/08/20 02:12:36;;;;;;;10.32;8.73;;;;;;;24.38;59.35;99881.94;5119371;28;20322;-69
2023/08/20 02:15:03;;;;;;;9.77;8.77;;;;;;;24.20;59.82;99894.66;5119781;28;20102;-69
2023/08/20 02:17:28;;;;;;;10.65;8.48;;;;;;;24.25;59.91;99898.50;5119299;28;20357;-69
2023/08/20 02:19:54;;;;;;;12.32;8.82;;;;;;;24.21;59.54;99890.06;5119657;28;20247;-69
2023/08/20 02:22:20;;;;;;;9.98;8.90;;;;;;;24.18;60.20;99898.66;5119578;28;20080;-68
2023/08/20 02:24:46;;;;;;;15.70;10.23;;;;;;;24.16;60.54;99898.91;5119520;28;20036;-69
2023/08/20 02:27:12;;;;;;;9.95;8.95;;;;;;;24.17;60.04;99903.25;5119188;28;20050;-69
2023/08/20 02:29:37;;;;;;;10.98;9.23;;;;;;;24.19;60.08;99903.84;5119636;28;20668;-68
2023/08/20 02:32:02;;;;;;;12.75;9.90;;;;;;;24.16;60.29;99898.09;5119475;28;20031;-69
2023/08/20 02:34:28;;;;;;;10.80;9.70;;;;;;;24.18;60.21;99899.50;5119546;28;20032;-68
2023/08/20 02:36:53;;;;;;;13.15;10.68;;;;;;;24.21;59.95;99900.88;5118820;28;20084;-68
2023/08/20 02:39:20;;;;;;;15.13;10.95;;;;;;;24.26;59.83;99900.13;5119094;28;20349;-68
2023/08/20 02:41:45;;;;;;;11.85;10.65;;;;;;;24.18;60.21;99904.91;5118794;28;20090;-68
2023/08/20 02:44:11;;;;;;;14.25;10.15;;;;;;;24.14;59.74;99886.69;5119005;28;20584;-69
2023/08/20 02:46:38;;;;;;;18.75;11.10;;;;;;;24.30;59.54;99901.31;5119084;28;20023;-68
2023/08/20 02:49:03;;;;;;;11.55;10.35;;;;;;;24.40;59.68;99904.16;5118869;28;20027;-69
2023/08/20 02:51:29;;;;;;;13.60;10.30;;;;;;;24.40;59.59;99910.41;5119018;28;20040;-68
2023/08/20 02:53:54;;;;;;;13.05;10.25;;;;;;;24.33;59.58;99900.81;5118900;28;20084;-68
2023/08/20 02:56:20;;;;;;;12.43;10.27;;;;;;;24.30;59.65;99894.00;5118446;28;20050;-69
2023/08/20 02:58:45;;;;;;;12.07;10.20;;;;;;;24.31;59.35;99911.06;5118770;28;20035;-69
2023/08/20 03:01:25;;;;;;;14.95;11.02;;;;;;;24.36;59.69;99905.72;5118360;28;20380;-69
2023/08/20 03:03:51;;;;;;;12.82;10.48;;;;;;;24.24;60.10;99915.81;5118749;28;20181;-69
2023/08/20 03:06:16;;;;;;;13.32;11.65;;;;;;;24.11;60.24;99909.66;5118605;28;20039;-69
2023/08/20 03:08:42;;;;;;;12.02;10.63;;;;;;;24.06;60.80;99914.16;5118287;28;20035;-68
2023/08/20 03:11:07;;;;;;;12.23;10.32;;;;;;;24.12;60.51;99916.72;5118368;28;20281;-68
2023/08/20 03:13:33;;;;;;;13.15;10.90;;;;;;;24.14;60.40;99916.47;5118616;28;20039;-69
2023/08/20 03:15:58;;;;;;;16.77;10.68;;;;;;;24.23;60.07;99919.56;5118314;28;20043;-69
2023/08/20 03:18:24;;;;;;;14.00;10.77;;;;;;;24.22;60.40;99926.88;5118529;28;20043;-70
2023/08/20 03:20:49;;;;;;;12.98;10.43;;;;;;;24.26;60.16;99908.25;5118218;28;20047;-68
2023/08/20 03:23:14;;;;;;;14.02;10.80;;;;;;;24.37;60.15;99915.50;5118408;28;20041;-69
2023/08/20 03:25:40;;;;;;;13.93;10.73;;;;;;;24.40;60.01;99917.69;5118489;28;20124;-69
2023/08/20 03:28:05;;;;;;;11.80;10.48;;;;;;;24.35;59.98;99906.81;5118210;28;20054;-69
2023/08/20 03:30:31;;;;;;;13.13;10.93;;;;;;;24.28;60.64;99914.28;5117957;28;20420;-69
2023/08/20 03:32:57;;;;;;;15.23;10.98;;;;;;;24.16;61.42;99917.03;5118031;28;20028;-68
2023/08/20 03:35:23;;;;;;;15.80;11.30;;;;;;;24.14;61.47;99911.88;5118225;28;20118;-69
2023/08/20 03:37:48;;;;;;;18.25;11.45;;;;;;;24.14;61.82;99914.56;5117949;28;20032;-69
2023/08/20 03:40:14;;;;;;;16.17;11.93;;;;;;;24.19;62.13;99908.44;5118136;28;20028;-68
2023/08/20 03:42:39;;;;;;;14.00;10.93;;;;;;;24.18;61.82;99904.09;5117769;28;20043;-69
2023/08/20 03:45:05;;;;;;;12.35;9.85;;;;;;;24.20;61.88;99912.78;5117840;28;20083;-69
2023/08/20 03:47:31;;;;;;;15.57;11.48;;;;;;;24.17;61.87;99907.84;5117961;28;20032;-68
2023/08/20 03:49:56;;;;;;;20.25;11.32;;;;;;;24.10;62.30;99912.63;5118239;28;20317;-68
2023/08/20 03:52:22;;;;;;;14.23;10.30;;;;;;;24.11;62.23;99914.25;5117971;28;20314;-69
2023/08/20 03:54:47;;;;;;;12.30;10.07;;;;;;;24.03;62.94;99923.59;5117813;28;20237;-68
2023/08/20 03:57:13;;;;;;;16.02;11.07;;;;;;;24.05;63.19;99926.06;5117809;28;20097;-69
2023/08/20 03:59:38;;;;;;;15.90;10.80;;;;;;;24.04;62.60;99922.53;5117498;28;20040;-69
2023/08/20 04:02:03;;;;;;;14.70;10.75;;;;;;;24.03;62.63;99920.88;5117687;28;20032;-69
2023/08/20 04:04:29;;;;;;;13.95;11.32;;;;;;;24.04;62.73;99921.72;5117835;28;20038;-68
2023/08/20 04:06:54;;;;;;;14.43;10.43;;;;;;;23.99;63.15;99927.84;5117604;28;20108;-68
2023/08/20 04:09:20;;;;;;;14.10;10.20;;;;;;;23.95;63.61;99923.19;5117735;28;20040;-69
2023/08/20 04:11:45;;;;;;;15.40;10.77;;;;;;;23.97;63.54;99923.75;5117511;28;20039;-68
2023/08/20 04:14:11;;;;;;;15.38;10.80;;;;;;;23.94;62.95;99925.06;5117602;28;20322;-68
2023/08/20 04:16:36;;;;;;;13.27;10.10;;;;;;;23.99;62.29;99927.84;5117197;28;20043;-68
2023/08/20 04:19:02;;;;;;;13.88;10.25;;;;;;;23.76;62.75;99934.19;5117858;28;20040;-69
2023/08/20 04:21:27;;;;;;;13.90;10.45;;;;;;;23.86;62.72;99931.66;5117651;28;20062;-69
2023/08/20 04:23:52;;;;;;;12.65;10.15;;;;;;;23.99;62.60;99922.44;5117461;28;20136;-69
2023/08/20 04:26:18;;;;;;;12.00;9.88;;;;;;;24.11;62.29;99934.00;5117730;28;20027;-69
2023/08/20 04:28:44;;;;;;;13.15;10.25;;;;;;;24.03;62.46;99939.00;5117673;28;20038;-69
2023/08/20 04:31:09;;;;;;;13.35;11.50;;;;;;;24.02;62.60;99935.47;5117560;28;20029;-68
2023/08/20 04:33:35;;;;;;;13.07;10.50;;;;;;;24.04;62.71;99935.25;5117531;28;20351;-69
2023/08/20 04:36:00;;;;;;;13.32;10.43;;;;;;;24.04;62.97;99937.94;5117068;28;20103;-69
2023/08/20 04:38:26;;;;;;;16.55;11.05;;;;;;;24.20;62.72;99934.41;5117365;28;20043;-69
2023/08/20 04:40:51;;;;;;;17.05;11.40;;;;;;;24.25;62.06;99934.50;5117270;28;20040;-69
2023/08/20 04:43:17;;;;;;;12.40;10.18;;;;;;;24.29;62.01;99935.66;5117446;28;20039;-68
2023/08/20 04:45:42;;;;;;;12.77;10.02;;;;;;;24.09;62.17;99936.13;5116987;28;20051;-69
2023/08/20 04:48:08;;;;;;;12.55;9.57;;;;;;;24.10;61.96;99923.44;5117544;28;20035;-68
2023/08/20 04:50:33;;;;;;;13.70;10.48;;;;;;;24.33;61.91;99939.53;5117538;28;20102;-69
2023/08/20 04:52:59;;;;;;;12.90;9.30;;;;;;;24.31;61.75;99941.66;5117159;28;20035;-69
2023/08/20 04:55:25;;;;;;;12.93;10.13;;;;;;;24.36;61.40;99943.63;5117387;28;20085;-68
2023/08/20 04:57:51;;;;;;;14.10;9.40;;;;;;;24.39;61.21;99941.25;5117347;28;20233;-69
2023/08/20 05:00:17;;;;;;;13.25;10.27;;;;;;;24.32;61.30;99937.06;5117624;28;20047;-69
2023/08/20 05:02:42;;;;;;;13.57;10.05;;;;;;;24.46;61.56;99947.31;5117236;28;20027;-68
2023/08/20 05:05:08;;;;;;;14.85;9.73;;;;;;;24.47;61.64;99946.22;5117512;28;20329;-68
2023/08/20 05:07:33;;;;;;;17.77;9.60;;;;;;;24.58;62.17;99941.78;5116988;28;20389;-69
2023/08/20 05:09:59;;;;;;;12.35;9.15;;;;;;;24.63;61.76;99941.84;5117218;28;20236;-70
2023/08/20 05:12:24;;;;;;;16.35;11.20;;;;;;;24.64;61.45;99939.97;5119199;28;20483;-70
2023/08/20 05:14:49;;;;;;;13.77;9.45;;;;;;;24.68;61.84;99943.81;5120509;28;20040;-68
2023/08/20 05:17:15;;;;;;;12.55;9.88;;;;;;;24.68;62.09;99946.53;5120711;28;20221;-68
2023/08/20 05:19:40;;;;;;;13.82;9.63;;;;;;;24.62;61.64;99953.75;5120812;28;20116;-69
2023/08/20 05:22:06;;;;;;;14.65;9.13;;;;;;;24.49;61.76;99951.41;5120854;28;20023;-68
2023/08/20 05:24:31;;;;;;;14.18;9.65;;;;;;;24.58;62.01;99959.91;5120851;28;20341;-69
2023/08/20 05:27:10;;;;;;;12.20;9.55;;;;;;;24.64;62.10;99964.34;5120225;28;20038;-69
2023/08/20 05:29:37;;;;;;;11.88;9.38;;;;;;;24.54;61.88;99959.59;5120763;28;20104;-69
2023/08/20 05:32:02;;;;;;;13.23;9.70;;;;;;;24.68;61.76;99966.31;5120594;28;20036;-69
2023/08/20 05:34:28;;;;;;;11.70;9.45;;;;;;;24.52;61.53;99957.13;5120225;28;20043;-69
2023/08/20 05:36:53;;;;;;;15.05;9.40;;;;;;;24.70;61.50;99963.34;5120486;28;20044;-69
2023/08/20 05:39:18;;;;;;;11.73;9.35;;;;;;;24.67;60.79;99964.66;5120554;28;20601;-70
2023/08/20 05:41:44;;;;;;;9.90;8.93;;;;;;;24.76;61.27;99956.94;5119988;28;20321;-69
2023/08/20 05:44:10;;;;;;;10.23;9.07;;;;;;;24.82;61.56;99961.34;5120258;28;20054;-69
2023/08/20 05:46:35;;;;;;;11.93;9.82;;;;;;;24.98;62.12;99960.53;5120026;28;20066;-68
2023/08/20 05:49:01;;;;;;;12.65;9.80;;;;;;;25.09;61.65;99956.06;5120235;28;20051;-70
2023/08/20 05:51:26;;;;;;;13.90;9.48;;;;;;;25.14;61.11;99959.66;5119937;28;20430;-68
2023/08/20 05:53:51;;;;;;;14.77;9.85;;;;;;;25.22;61.72;99958.41;5120139;28;20043;-69
2023/08/20 05:56:17;;;;;;;15.07;10.05;;;;;;;25.30;61.32;99957.94;5119674;28;20035;-70
2023/08/20 05:58:43;;;;;;;12.77;9.82;;;;;;;25.37;61.01;99957.75;5120269;28;20050;-68
2023/08/20 06:01:08;;;;;;;12.07;9.90;;;;;;;25.34;60.66;99964.50;5120044;28;20119;-69
2023/08/20 06:03:34;;;;;;;13.40;9.55;;;;;;;25.49;60.06;99965.75;5119730;28;20054;-68
2023/08/20 06:05:59;;;;;;;13.60;9.50;;;;;;;25.64;59.95;99968.63;5119438;28;20116;-70
2023/08/20 06:08:25;;;;;;;13.60;9.48;;;;;;;25.67;59.19;99966.25;5119349;28;20035;-69
2023/08/20 06:10:50;;;;;;;11.68;9.07;;;;;;;25.90;58.74;99972.44;5118636;28;20024;-69
2023/08/20 06:13:16;;;;;;;16.95;10.02;;;;;;;25.96;58.60;99968.69;5114680;27;20035;-69
2023/08/20 06:15:41;;;;;;;15.50;11.00;;;;;;;26.16;58.47;99977.03;5119753;28;20038;-68
2023/08/20 06:18:07;;;;;;;21.38;14.77;;;;;;;26.19;58.59;99968.38;5119148;28;20068;-69
2023/08/20 06:20:32;;;;;;;12.75;10.82;;;;;;;26.29;56.92;99971.19;5119555;28;20101;-69
2023/08/20 06:22:57;;;;;;;16.02;10.40;;;;;;;26.48;56.02;99968.09;5118776;28;20210;-69
2023/08/20 06:25:23;;;;;;;27.77;12.52;;;;;;;26.61;56.02;99967.63;5119711;28;20048;-69
2023/08/20 06:27:48;;;;;;;15.30;10.65;;;;;;;26.86;55.79;99970.50;5119094;28;20027;-69
2023/08/20 06:30:14;;;;;;;11.27;9.02;;;;;;;26.97;53.32;99982.25;5119813;28;20050;-68
2023/08/20 06:32:39;;;;;;;11.27;9.93;;;;;;;26.99;53.78;99975.50;5119422;28;20042;-69
2023/08/20 06:35:05;;;;;;;12.23;10.75;;;;;;;27.00;54.00;99968.97;5119416;28;20051;-69
2023/08/20 06:37:31;;;;;;;12.10;9.38;;;;;;;27.30;52.32;99975.66;5118973;28;20111;-68
2023/08/20 06:39:56;;;;;;;11.13;9.20;;;;;;;27.54;52.04;99976.81;5119224;28;20036;-67
2023/08/20 06:42:22;;;;;;;10.02;8.38;;;;;;;27.86;51.12;99981.25;5118620;28;20037;-68
2023/08/20 06:44:47;;;;;;;13.15;9.15;;;;;;;27.93;50.29;99982.63;5118740;28;20055;-69
2023/08/20 06:47:14;;;;;;;11.27;9.02;;;;;;;27.97;48.89;99977.47;5119082;28;20038;-68
2023/08/20 06:49:40;;;;;;;13.13;9.93;;;;;;;27.85;49.66;99985.88;5119213;28;20039;-68
2023/08/20 06:52:05;;;;;;;13.55;10.05;;;;;;;27.75;50.38;99982.34;5119089;28;20045;-69
2023/08/20 06:54:31;;;;;;;10.82;8.60;;;;;;;27.58;50.66;99983.34;5118820;28;20039;-68
2023/08/20 06:56:56;;;;;;;13.43;10.68;;;;;;;27.58;50.49;99977.09;5118738;28;20031;-68
2023/08/20 06:59:22;;;;;;;10.38;9.38;;;;;;;27.77;50.39;99975.53;5118847;28;20039;-69
2023/08/20 07:01:48;;;;;;;13.68;9.10;;;;;;;27.84;49.28;99973.38;5118389;28;20031;-68
2023/08/20 07:04:14;;;;;;;11.10;9.60;;;;;;;28.08;48.25;99981.00;5118551;28;20081;-69
2023/08/20 07:06:39;;;;;;;11.18;9.18;;;;;;;28.11;47.79;99977.78;5118433;28;20032;-68
2023/08/20 07:09:05;;;;;;;11.90;9.55;;;;;;;28.12;48.35;99971.25;5118515;28;20051;-69
2023/08/20 07:11:30;;;;;;;9.85;8.50;;;;;;;28.13;48.29;99979.16;5117883;28;20038;-68
2023/08/20 07:13:56;;;;;;;9.43;8.52;;;;;;;28.34;48.41;99979.16;5118633;28;20067;-69
2023/08/20 07:16:21;;;;;;;11.43;9.85;;;;;;;28.48;47.79;99981.06;5118487;28;20333;-68
2023/08/20 07:18:46;;;;;;;10.82;9.73;;;;;;;28.71;48.00;99979.66;5118459;28;20062;-68
2023/08/20 07:21:12;;;;;;;11.43;9.60;;;;;;;28.88;46.75;99976.66;5118442;28;20217;-68
2023/08/20 07:23:37;;;;;;;15.32;9.60;;;;;;;29.13;45.87;99968.41;5118292;28;20249;-69
2023/08/20 07:26:08;;;;;;;11.65;10.05;;;;;;;29.29;45.30;99971.91;5118398;28;20042;-68
2023/08/20 07:31:18;;;;;;;13.73;10.93;;;;;;;29.64;43.88;99962.72;5118105;28;20038;-69
2023/08/20 07:33:50;;;;;;;13.23;10.23;;;;;;;29.94;43.59;99966.34;5118017;28;20058;-69
2023/08/20 07:36:16;;;;;;;12.13;10.68;;;;;;;30.09;43.10;99971.72;5118033;28;20039;-69
2023/08/20 07:38:43;;;;;;;13.38;11.90;;;;;;;30.01;42.71;99961.38;5118214;28;20049;-69
2023/08/20 07:41:11;;;;;;;11.68;10.57;;;;;;;30.22;42.24;99962.91;5117885;28;20035;-69
2023/08/20 07:43:38;;;;;;;14.02;9.65;;;;;;;30.49;42.39;99956.91;5118079;28;20039;-69
2023/08/20 07:46:04;;;;;;;11.60;10.40;;;;;;;30.75;42.03;99957.50;5117795;28;20047;-68
2023/08/20 07:48:29;;;;;;;13.43;9.00;;;;;;;30.94;40.95;99952.09;5118011;28;20075;-69
2023/08/20 07:50:55;;;;;;;10.45;9.45;;;;;;;31.09;40.77;99957.38;5117659;28;20031;-68
2023/08/20 07:53:20;;;;;;;10.93;8.60;;;;;;;31.21;40.30;99946.88;5117840;28;20035;-68
2023/08/20 07:55:45;;;;;;;11.77;8.60;;;;;;;31.34;39.68;99954.38;5117883;28;20359;-69
2023/08/20 07:58:11;;;;;;;9.57;8.05;;;;;;;31.49;38.44;99956.06;5117628;28;20036;-69
2023/08/20 08:00:36;;;;;;;9.90;8.48;;;;;;;31.47;38.32;99949.28;5117869;28;20035;-69
2023/08/20 08:03:02;;;;;;;9.85;8.30;;;;;;;31.62;38.87;99957.25;5117732;28;20054;-69
2023/08/20 08:05:28;;;;;;;10.90;7.95;;;;;;;31.66;38.36;99956.38;5117788;28;20041;-69
2023/08/20 08:07:54;;;;;;;8.52;7.72;;;;;;;31.72;37.95;99949.75;5117741;28;20035;-69
2023/08/20 08:10:19;;;;;;;7.38;6.60;;;;;;;31.76;36.57;99939.00;5118121;28;20084;-69
2023/08/20 08:12:45;;;;;;;9.35;8.00;;;;;;;31.88;37.06;99944.03;5117212;28;20027;-69
2023/08/20 08:15:12;;;;;;;11.25;7.65;;;;;;;31.95;37.16;99950.75;5118024;28;20049;-70
2023/08/20 08:17:37;;;;;;;9.05;7.53;;;;;;;32.11;37.49;99945.03;5117641;28;20027;-69
2023/08/20 08:20:03;;;;;;;9.40;7.40;;;;;;;32.20;36.66;99948.69;5117972;28;20205;-68
2023/08/20 08:22:28;;;;;;;8.13;6.50;;;;;;;32.23;34.84;99943.44;5117661;28;20032;-70
2023/08/20 08:24:53;;;;;;;7.53;6.82;;;;;;;32.14;35.59;99939.75;5117813;28;20046;-69
2023/08/20 08:27:19;;;;;;;6.72;6.13;;;;;;;32.21;34.74;99934.69;5117575;28;20039;-69
2023/08/20 08:29:45;;;;;;;7.30;6.60;;;;;;;31.98;34.44;99944.69;5117459;28;20043;-69
2023/08/20 08:32:10;;;;;;;6.15;5.55;;;;;;;32.08;34.17;99935.47;5117545;28;20234;-69
2023/08/20 08:34:36;;;;;;;7.57;6.88;;;;;;;32.19;35.01;99930.63;5117712;28;20229;-69
2023/08/20 08:37:01;;;;;;;6.35;5.85;;;;;;;31.87;33.64;99939.66;5117643;28;20117;-70
2023/08/20 08:39:26;;;;;;;7.57;6.22;;;;;;;32.09;34.13;99934.38;5117487;28;20073;-68
2023/08/20 08:42:04;;;;;;;7.93;6.07;;;;;;;32.23;33.99;99929.72;5116846;28;20062;-68
2023/08/20 08:44:33;;;;;;;6.75;6.05;;;;;;;32.36;33.21;99941.91;5117508;28;20061;-68
2023/08/20 08:46:59;;;;;;;9.50;6.55;;;;;;;32.16;32.29;99929.31;5120449;28;20031;-70
2023/08/20 08:49:26;;;;;;;7.50;6.32;;;;;;;32.17;34.22;99933.69;5121657;28;20054;-67
2023/08/20 08:51:53;;;;;;;9.20;6.05;;;;;;;32.28;33.94;99926.16;5121109;28;20055;-68
2023/08/20 08:54:20;;;;;;;8.07;7.03;;;;;;;32.15;34.11;99927.69;5121483;28;20111;-68
2023/08/20 08:56:46;;;;;;;8.38;6.20;;;;;;;32.07;34.36;99928.38;5121398;28;20394;-67
2023/08/20 08:59:11;;;;;;;8.63;6.55;;;;;;;32.18;34.55;99932.56;5121251;28;20050;-70
2023/08/20 09:01:41;;;;;;;7.03;6.43;;;;;;;32.17;33.06;99928.19;5121121;28;20031;-68
2023/08/20 09:04:07;;;;;;;6.35;5.75;;;;;;;32.22;32.46;99927.28;5121271;28;20044;-68
2023/08/20 09:06:52;;;;;;;8.35;6.25;;;;;;;32.31;33.58;99915.41;5121029;28;20046;-69
2023/08/20 09:09:19;;;;;;;6.70;6.05;;;;;;;32.34;33.41;99914.81;5121335;28;20225;-69
2023/08/20 09:11:45;;;;;;;6.78;6.03;;;;;;;32.40;33.23;99915.53;5120392;28;20031;-68
2023/08/20 09:14:22;;;;;;;8.00;6.60;;;;;;;32.33;32.89;99915.09;5121086;28;20046;-67
2023/08/20 09:16:54;;;;;;;6.50;5.57;;;;;;;32.29;33.63;99914.06;5120827;28;20043;-68
2023/08/20 09:19:20;;;;;;;6.20;5.60;;;;;;;32.38;32.25;99902.13;5121224;28;20048;-70
2023/08/20 09:21:49;;;;;;;7.78;5.95;;;;;;;32.53;33.56;99898.28;5121311;28;20103;-69
2023/08/20 09:24:14;;;;;;;6.88;5.70;;;;;;;32.65;32.34;99897.78;5121072;28;20046;-68
2023/08/20 09:26:45;;;;;;;6.03;5.53;;;;;;;32.64;33.19;99896.16;5121163;28;20035;-67
2023/08/20 09:29:10;;;;;;;7.32;6.00;;;;;;;32.65;33.69;99893.09;5121511;28;20040;-70
2023/08/20 09:31:39;;;;;;;7.68;6.07;;;;;;;32.57;33.46;99885.59;5121921;28;20039;-70
2023/08/20 09:34:05;;;;;;;6.85;6.15;;;;;;;32.49;32.75;99897.25;5120943;28;20106;-69
2023/08/20 09:36:34;;;;;;;6.05;5.53;;;;;;;32.39;32.34;99891.97;5120578;28;20035;-69
2023/08/20 09:39:03;;;;;;;6.50;5.88;;;;;;;32.38;32.91;99882.94;5120392;28;20028;-69
2023/08/20 09:41:30;;;;;;;6.40;5.57;;;;;;;32.38;31.96;99882.13;5119762;28;20039;-69
2023/08/20 09:43:57;;;;;;;7.18;5.75;;;;;;;32.35;33.21;99885.47;5120064;28;20036;-70
2023/08/20 09:46:25;;;;;;;7.00;5.93;;;;;;;32.25;34.06;99882.88;5120466;28;20031;-69
2023/08/20 09:48:52;;;;;;;6.47;5.88;;;;;;;32.23;33.01;99865.91;5120648;28;20052;-69
2023/08/20 09:51:24;;;;;;;9.63;5.75;;;;;;;32.30;34.06;99871.88;5120515;28;20031;-70
2023/08/20 09:54:06;;;;;;;7.63;5.88;;;;;;;32.30;32.98;99864.44;5120575;28;20047;-69
2023/08/20 09:56:38;;;;;;;6.07;5.47;;;;;;;32.14;33.30;99868.53;5119892;28;20136;-70
2023/08/20 09:59:04;;;;;;;6.47;5.83;;;;;;;32.20;33.58;99872.81;5120111;28;20046;-70
2023/08/20 10:01:30;;;;;;;8.15;5.50;;;;;;;32.23;33.30;99863.16;5120345;28;20020;-70
2023/08/20 10:03:56;;;;;;;6.25;4.97;;;;;;;32.18;33.67;99857.78;5120126;28;20126;-70
2023/08/20 10:06:23;;;;;;;7.22;5.22;;;;;;;32.29;32.92;99862.03;5119934;28;20066;-69
2023/08/20 10:08:50;;;;;;;6.78;5.38;;;;;;;32.34;32.56;99865.47;5119976;28;20108;-69
2023/08/20 10:11:16;;;;;;;5.95;5.35;;;;;;;32.38;31.92;99854.72;5119421;28;20046;-69
2023/08/20 10:13:41;;;;;;;6.72;5.22;;;;;;;32.40;32.08;99859.91;5120098;28;20035;-67
2023/08/20 10:16:07;;;;;;;9.07;5.25;;;;;;;32.32;31.74;99858.66;5119716;28;20181;-67
2023/08/20 10:18:35;;;;;;;13.35;5.50;;;;;;;32.26;32.48;99855.22;5119974;28;20074;-67
2023/08/20 10:21:02;;;;;;;5.72;4.72;;;;;;;32.36;32.52;99846.81;5120332;28;20043;-69
2023/08/20 10:23:27;;;;;;;6.50;5.15;;;;;;;32.47;31.68;99843.84;5119994;28;20031;-68
2023/08/20 10:25:53;;;;;;;6.13;5.53;;;;;;;32.36;31.79;99846.00;5120070;28;20266;-68
2023/08/20 10:28:24;;;;;;;6.32;4.93;;;;;;;32.25;31.31;99841.78;5119989;28;20125;-68
2023/08/20 10:31:11;;;;;;;5.72;5.22;;;;;;;32.11;31.74;99835.44;5120038;28;20113;-68
2023/08/20 10:33:57;;;;;;;8.30;5.53;;;;;;;32.08;31.72;99836.88;5120221;28;20038;-68
2023/08/20 10:36:33;;;;;;;5.75;5.10;;;;;;;32.11;31.79;99835.44;5119394;28;20047;-68
2023/08/20 10:39:04;;;;;;;5.20;4.80;;;;;;;32.05;31.20;99835.53;5119259;28;20035;-69
2023/08/20 10:41:30;;;;;;;7.30;5.25;;;;;;;32.12;31.84;99840.63;5118821;28;20032;-69
2023/08/20 10:43:59;;;;;;;5.60;5.10;;;;;;;32.06;31.37;99833.63;5118964;28;20036;-68
2023/08/20 10:46:27;;;;;;;5.35;4.85;;;;;;;32.02;31.55;99822.44;5119126;28;20035;-69
2023/08/20 10:48:53;;;;;;;6.88;5.30;;;;;;;32.03;31.80;99824.06;5118921;28;20032;-69
2023/08/20 10:51:26;;;;;;;7.28;5.28;;;;;;;32.05;30.88;99829.25;5119139;28;20256;-68
2023/08/20 10:54:00;;;;;;;5.75;4.72;;;;;;;32.04;31.40;99816.66;5119106;28;20174;-68
2023/08/20 10:56:46;;;;;;;6.97;5.20;;;;;;;32.02;31.03;99822.44;5118913;28;20042;-69
2023/08/20 10:59:23;;;;;;;5.20;4.72;;;;;;;31.99;31.53;99812.09;5119101;28;20344;-69
2023/08/20 11:01:51;;;;;;;5.68;5.15;;;;;;;31.95;32.30;99813.81;5118877;28;20081;-68
2023/08/20 11:04:18;;;;;;;5.75;5.07;;;;;;;32.09;33.12;99805.63;5118925;28;20043;-69
2023/08/20 11:06:45;;;;;;;5.53;4.68;;;;;;;32.17;31.86;99804.91;5118885;28;20042;-70
2023/08/20 11:09:10;;;;;;;5.35;4.72;;;;;;;32.07;31.40;99796.91;5118885;28;20039;-69
2023/08/20 11:11:39;;;;;;;5.72;5.20;;;;;;;32.17;33.80;99795.88;5117956;28;20275;-70
2023/08/20 11:14:09;;;;;;;5.45;4.95;;;;;;;32.21;31.81;99792.25;5118823;28;20051;-69
2023/08/20 11:16:36;;;;;;;5.93;5.07;;;;;;;32.28;32.00;99798.19;5118802;28;20039;-70
2023/08/20 11:19:07;;;;;;;5.20;4.70;;;;;;;32.40;32.22;99800.41;5118533;28;20333;-69
2023/08/20 11:21:33;;;;;;;5.88;5.28;;;;;;;32.46;31.37;99792.91;5118154;28;20036;-69
2023/08/20 11:24:00;;;;;;;7.60;5.07;;;;;;;32.47;32.18;99789.84;5118753;28;20039;-69
2023/08/20 11:26:26;;;;;;;6.38;5.40;;;;;;;32.42;31.05;99787.22;5118319;28;20023;-67
2023/08/20 11:28:51;;;;;;;5.30;4.80;;;;;;;32.38;31.30;99777.97;5118335;28;20047;-70